sensor_id;sensor_type;location;lat;lon;timestamp;temperature;humidity
61591;DHT22;57639;52.410;-1.966;2023-06-22T00:02:22;21.00;59.90
61591;DHT22;57639;52.410;-1.966;2023-06-22T00:05:28;21.00;59.80
61591;DHT22;57639;52.410;-1.966;2023-06-22T00:08:35;21.00;59.90
61591;DHT22;57639;52.410;-1.966;2023-06-22T00:11:41;21.00;59.90
61591;DHT22;57639;52.410;-1.966;2023-06-22T00:14:47;21.00;59.80
61591;DHT22;57639;52.410;-1.966;2023-06-22T00:17:56;21.00;59.80
61591;DHT22;57639;52.410;-1.966;2023-06-22T00:21:03;21.00;59.70
61591;DHT22;57639;52.410;-1.966;2023-06-22T00:24:10;21.00;59.70
61591;DHT22;57639;52.410;-1.966;2023-06-22T00:27:16;21.00;59.60
61591;DHT22;57639;52.410;-1.966;2023-06-22T00:30:22;21.00;59.60
61591;DHT22;57639;52.410;-1.966;2023-06-22T00:33:31;21.00;59.60
61591;DHT22;57639;52.410;-1.966;2023-06-22T00:36:38;21.00;59.50
61591;DHT22;57639;52.410;-1.966;2023-06-22T00:39:45;21.00;59.50
61591;DHT22;57639;52.410;-1.966;2023-06-22T00:42:51;21.00;59.40
61591;DHT22;57639;52.410;-1.966;2023-06-22T00:45:58;21.00;59.50
61591;DHT22;57639;52.410;-1.966;2023-06-22T00:49:07;21.00;59.40
61591;DHT22;57639;52.410;-1.966;2023-06-22T00:52:14;20.90;59.40
61591;DHT22;57639;52.410;-1.966;2023-06-22T00:55:24;20.90;59.40
61591;DHT22;57639;52.410;-1.966;2023-06-22T00:58:31;20.90;59.40
61591;DHT22;57639;52.410;-1.966;2023-06-22T01:01:38;20.90;59.30
61591;DHT22;57639;52.410;-1.966;2023-06-22T01:04:47;20.90;59.30
61591;DHT22;57639;52.410;-1.966;2023-06-22T01:08:06;20.90;59.30
61591;DHT22;57639;52.410;-1.966;2023-06-22T01:11:20;20.90;59.30
61591;DHT22;57639;52.410;-1.966;2023-06-22T01:14:34;20.90;59.10
61591;DHT22;57639;52.410;-1.966;2023-06-22T01:17:43;20.90;59.30
61591;DHT22;57639;52.410;-1.966;2023-06-22T01:20:53;20.90;59.30
61591;DHT22;57639;52.410;-1.966;2023-06-22T01:24:14;20.90;59.30
61591;DHT22;57639;52.410;-1.966;2023-06-22T01:27:32;20.90;59.30
61591;DHT22;57639;52.410;-1.966;2023-06-22T01:30:43;20.90;59.20
61591;DHT22;57639;52.410;-1.966;2023-06-22T01:33:53;20.90;59.20
61591;DHT22;57639;52.410;-1.966;2023-06-22T01:37:01;20.80;59.30
61591;DHT22;57639;52.410;-1.966;2023-06-22T01:40:08;20.90;59.20
61591;DHT22;57639;52.410;-1.966;2023-06-22T01:43:15;20.80;59.30
61591;DHT22;57639;52.410;-1.966;2023-06-22T01:46:25;20.80;59.20
61591;DHT22;57639;52.410;-1.966;2023-06-22T01:49:31;20.90;59.10
61591;DHT22;57639;52.410;-1.966;2023-06-22T01:52:38;20.80;59.10
61591;DHT22;57639;52.410;-1.966;2023-06-22T01:55:44;20.80;59.10
61591;DHT22;57639;52.410;-1.966;2023-06-22T01:58:54;20.90;59.10
61591;DHT22;57639;52.410;-1.966;2023-06-22T02:02:09;20.80;59.10
61591;DHT22;57639;52.410;-1.966;2023-06-22T02:05:17;20.80;59.00
61591;DHT22;57639;52.410;-1.966;2023-06-22T02:08:29;20.80;59.10
61591;DHT22;57639;52.410;-1.966;2023-06-22T02:11:37;20.80;59.10
61591;DHT22;57639;52.410;-1.966;2023-06-22T02:14:46;20.80;58.90
61591;DHT22;57639;52.410;-1.966;2023-06-22T02:17:55;20.80;58.90
61591;DHT22;57639;52.410;-1.966;2023-06-22T02:21:02;20.80;58.90
61591;DHT22;57639;52.410;-1.966;2023-06-22T02:24:08;20.80;58.90
61591;DHT22;57639;52.410;-1.966;2023-06-22T02:27:14;20.70;58.80
61591;DHT22;57639;52.410;-1.966;2023-06-22T02:30:21;20.80;58.80
61591;DHT22;57639;52.410;-1.966;2023-06-22T02:33:30;20.80;58.90
61591;DHT22;57639;52.410;-1.966;2023-06-22T02:36:36;20.80;59.00
61591;DHT22;57639;52.410;-1.966;2023-06-22T02:39:43;20.80;58.80
61591;DHT22;57639;52.410;-1.966;2023-06-22T02:42:50;20.70;59.00
61591;DHT22;57639;52.410;-1.966;2023-06-22T02:45:56;20.70;59.00
61591;DHT22;57639;52.410;-1.966;2023-06-22T02:49:05;20.70;58.90
61591;DHT22;57639;52.410;-1.966;2023-06-22T02:52:11;20.80;58.90
61591;DHT22;57639;52.410;-1.966;2023-06-22T02:55:18;20.70;58.90
61591;DHT22;57639;52.410;-1.966;2023-06-22T02:58:24;20.70;58.90
61591;DHT22;57639;52.410;-1.966;2023-06-22T03:01:30;20.70;58.80
61591;DHT22;57639;52.410;-1.966;2023-06-22T03:04:45;20.70;58.70
61591;DHT22;57639;52.410;-1.966;2023-06-22T03:07:52;20.70;58.70
61591;DHT22;57639;52.410;-1.966;2023-06-22T03:10:58;20.70;58.80
61591;DHT22;57639;52.410;-1.966;2023-06-22T03:14:04;20.70;58.60
61591;DHT22;57639;52.410;-1.966;2023-06-22T03:17:11;20.70;58.70
61591;DHT22;57639;52.410;-1.966;2023-06-22T03:20:20;20.80;58.60
61591;DHT22;57639;52.410;-1.966;2023-06-22T03:23:26;20.70;58.60
61591;DHT22;57639;52.410;-1.966;2023-06-22T03:26:33;20.70;58.70
61591;DHT22;57639;52.410;-1.966;2023-06-22T03:29:39;20.70;58.80
61591;DHT22;57639;52.410;-1.966;2023-06-22T03:32:46;20.70;58.70
61591;DHT22;57639;52.410;-1.966;2023-06-22T03:35:55;20.70;58.50
61591;DHT22;57639;52.410;-1.966;2023-06-22T03:39:02;20.70;58.60
61591;DHT22;57639;52.410;-1.966;2023-06-22T03:42:09;20.70;58.60
61591;DHT22;57639;52.410;-1.966;2023-06-22T03:45:16;20.70;58.60
61591;DHT22;57639;52.410;-1.966;2023-06-22T03:48:23;20.70;58.60
61591;DHT22;57639;52.410;-1.966;2023-06-22T03:51:33;20.70;58.70
61591;DHT22;57639;52.410;-1.966;2023-06-22T03:54:40;20.70;58.50
61591;DHT22;57639;52.410;-1.966;2023-06-22T03:57:46;20.60;58.70
61591;DHT22;57639;52.410;-1.966;2023-06-22T04:00:53;20.70;58.50
61591;DHT22;57639;52.410;-1.966;2023-06-22T04:03:59;20.70;58.60
61591;DHT22;57639;52.410;-1.966;2023-06-22T04:07:09;20.70;58.60
61591;DHT22;57639;52.410;-1.966;2023-06-22T04:10:15;20.70;58.60
61591;DHT22;57639;52.410;-1.966;2023-06-22T04:13:21;20.70;58.60
61591;DHT22;57639;52.410;-1.966;2023-06-22T04:16:28;20.70;58.50
61591;DHT22;57639;52.410;-1.966;2023-06-22T04:19:34;20.70;58.50
61591;DHT22;57639;52.410;-1.966;2023-06-22T04:22:44;20.70;58.50
61591;DHT22;57639;52.410;-1.966;2023-06-22T04:25:50;20.70;58.50
61591;DHT22;57639;52.410;-1.966;2023-06-22T04:28:59;20.70;58.30
61591;DHT22;57639;52.410;-1.966;2023-06-22T04:32:08;20.70;58.10
61591;DHT22;57639;52.410;-1.966;2023-06-22T04:35:16;20.60;58.10
61591;DHT22;57639;52.410;-1.966;2023-06-22T04:38:25;20.60;58.40
61591;DHT22;57639;52.410;-1.966;2023-06-22T04:41:31;20.60;58.10
61591;DHT22;57639;52.410;-1.966;2023-06-22T04:44:45;20.60;58.10
61591;DHT22;57639;52.410;-1.966;2023-06-22T04:47:52;20.60;58.00
61591;DHT22;57639;52.410;-1.966;2023-06-22T04:51:01;20.60;58.00
61591;DHT22;57639;52.410;-1.966;2023-06-22T04:54:10;20.60;58.10
61591;DHT22;57639;52.410;-1.966;2023-06-22T04:57:14;20.60;57.90
61591;DHT22;57639;52.410;-1.966;2023-06-22T05:00:37;20.60;58.00
61591;DHT22;57639;52.410;-1.966;2023-06-22T05:04:00;20.60;57.90
61591;DHT22;57639;52.410;-1.966;2023-06-22T05:07:24;20.60;58.00
61591;DHT22;57639;52.410;-1.966;2023-06-22T05:10:34;20.60;57.70
61591;DHT22;57639;52.410;-1.966;2023-06-22T05:13:40;20.60;57.80
61591;DHT22;57639;52.410;-1.966;2023-06-22T05:16:46;20.60;57.70
61591;DHT22;57639;52.410;-1.966;2023-06-22T05:19:55;20.60;57.60
61591;DHT22;57639;52.410;-1.966;2023-06-22T05:23:03;20.60;57.50
61591;DHT22;57639;52.410;-1.966;2023-06-22T05:26:12;20.60;57.50
61591;DHT22;57639;52.410;-1.966;2023-06-22T05:29:18;20.60;57.50
61591;DHT22;57639;52.410;-1.966;2023-06-22T05:32:25;20.60;57.60
61591;DHT22;57639;52.410;-1.966;2023-06-22T05:35:31;20.60;57.50
61591;DHT22;57639;52.410;-1.966;2023-06-22T05:38:38;20.60;57.50
61591;DHT22;57639;52.410;-1.966;2023-06-22T05:41:47;20.60;57.90
61591;DHT22;57639;52.410;-1.966;2023-06-22T05:44:53;20.60;58.20
61591;DHT22;57639;52.410;-1.966;2023-06-22T05:48:01;20.60;58.40
61591;DHT22;57639;52.410;-1.966;2023-06-22T05:51:10;20.60;58.60
61591;DHT22;57639;52.410;-1.966;2023-06-22T05:54:17;20.60;57.90
61591;DHT22;57639;52.410;-1.966;2023-06-22T05:57:26;20.60;57.90
61591;DHT22;57639;52.410;-1.966;2023-06-22T06:00:33;20.60;57.70
61591;DHT22;57639;52.410;-1.966;2023-06-22T06:03:39;20.60;57.70
61591;DHT22;57639;52.410;-1.966;2023-06-22T06:06:45;20.60;57.70
61591;DHT22;57639;52.410;-1.966;2023-06-22T06:09:53;20.60;57.70
61591;DHT22;57639;52.410;-1.966;2023-06-22T06:13:02;20.60;57.70
61591;DHT22;57639;52.410;-1.966;2023-06-22T06:16:08;20.60;57.70
61591;DHT22;57639;52.410;-1.966;2023-06-22T06:19:14;20.60;57.70
61591;DHT22;57639;52.410;-1.966;2023-06-22T06:22:23;20.70;57.80
61591;DHT22;57639;52.410;-1.966;2023-06-22T06:25:29;20.70;57.80
61591;DHT22;57639;52.410;-1.966;2023-06-22T06:28:38;20.70;57.70
61591;DHT22;57639;52.410;-1.966;2023-06-22T06:31:45;20.70;57.80
61591;DHT22;57639;52.410;-1.966;2023-06-22T06:34:51;20.70;57.80
61591;DHT22;57639;52.410;-1.966;2023-06-22T06:38:00;20.70;57.90
61591;DHT22;57639;52.410;-1.966;2023-06-22T06:41:06;20.70;58.00
61591;DHT22;57639;52.410;-1.966;2023-06-22T06:44:17;20.70;58.60
61591;DHT22;57639;52.410;-1.966;2023-06-22T06:47:27;20.70;58.70
61591;DHT22;57639;52.410;-1.966;2023-06-22T06:50:34;20.70;59.10
61591;DHT22;57639;52.410;-1.966;2023-06-22T06:53:40;20.80;59.30
61591;DHT22;57639;52.410;-1.966;2023-06-22T06:56:50;20.80;59.60
61591;DHT22;57639;52.410;-1.966;2023-06-22T07:00:14;20.80;59.70
61591;DHT22;57639;52.410;-1.966;2023-06-22T07:03:23;20.90;59.90
61591;DHT22;57639;52.410;-1.966;2023-06-22T07:06:30;20.80;60.30
61591;DHT22;57639;52.410;-1.966;2023-06-22T07:09:37;20.80;60.30
61591;DHT22;57639;52.410;-1.966;2023-06-22T07:12:43;20.80;60.10
61591;DHT22;57639;52.410;-1.966;2023-06-22T07:15:53;20.80;60.20
61591;DHT22;57639;52.410;-1.966;2023-06-22T07:19:05;20.80;60.20
61591;DHT22;57639;52.410;-1.966;2023-06-22T07:22:12;20.80;60.20
61591;DHT22;57639;52.410;-1.966;2023-06-22T07:25:18;20.90;60.10
61591;DHT22;57639;52.410;-1.966;2023-06-22T07:28:24;20.90;60.10
61591;DHT22;57639;52.410;-1.966;2023-06-22T07:31:34;20.90;59.90
61591;DHT22;57639;52.410;-1.966;2023-06-22T07:34:43;21.00;59.90
61591;DHT22;57639;52.410;-1.966;2023-06-22T07:37:49;21.00;59.80
61591;DHT22;57639;52.410;-1.966;2023-06-22T07:40:55;21.00;59.70
61591;DHT22;57639;52.410;-1.966;2023-06-22T07:44:03;21.00;59.60
61591;DHT22;57639;52.410;-1.966;2023-06-22T07:47:12;21.00;59.50
61591;DHT22;57639;52.410;-1.966;2023-06-22T07:50:20;21.00;59.60
61591;DHT22;57639;52.410;-1.966;2023-06-22T07:53:27;21.00;59.50
61591;DHT22;57639;52.410;-1.966;2023-06-22T07:56:33;21.00;59.50
61591;DHT22;57639;52.410;-1.966;2023-06-22T07:59:40;21.00;59.50
61591;DHT22;57639;52.410;-1.966;2023-06-22T08:02:49;21.00;59.50
61591;DHT22;57639;52.410;-1.966;2023-06-22T08:05:55;21.00;59.50
61591;DHT22;57639;52.410;-1.966;2023-06-22T08:09:02;21.00;59.40
61591;DHT22;57639;52.410;-1.966;2023-06-22T08:12:09;21.00;59.40
61591;DHT22;57639;52.410;-1.966;2023-06-22T08:15:16;21.00;59.30
61591;DHT22;57639;52.410;-1.966;2023-06-22T08:18:26;21.00;59.30
61591;DHT22;57639;52.410;-1.966;2023-06-22T08:21:32;21.00;59.30
61591;DHT22;57639;52.410;-1.966;2023-06-22T08:24:38;21.10;59.30
61591;DHT22;57639;52.410;-1.966;2023-06-22T08:27:45;21.00;59.30
61591;DHT22;57639;52.410;-1.966;2023-06-22T08:30:53;21.00;59.30
61591;DHT22;57639;52.410;-1.966;2023-06-22T08:34:03;21.10;59.30
61591;DHT22;57639;52.410;-1.966;2023-06-22T08:37:11;21.10;59.30
61591;DHT22;57639;52.410;-1.966;2023-06-22T08:40:18;21.10;59.30
61591;DHT22;57639;52.410;-1.966;2023-06-22T08:43:24;21.10;59.30
61591;DHT22;57639;52.410;-1.966;2023-06-22T08:46:33;21.10;59.20
61591;DHT22;57639;52.410;-1.966;2023-06-22T08:49:44;21.10;59.20
61591;DHT22;57639;52.410;-1.966;2023-06-22T08:52:53;21.10;59.20
61591;DHT22;57639;52.410;-1.966;2023-06-22T08:55:59;21.10;59.20
61591;DHT22;57639;52.410;-1.966;2023-06-22T08:59:05;21.20;59.20
61591;DHT22;57639;52.410;-1.966;2023-06-22T09:02:12;21.20;59.20
61591;DHT22;57639;52.410;-1.966;2023-06-22T09:05:24;21.20;59.20
61591;DHT22;57639;52.410;-1.966;2023-06-22T09:08:32;21.20;59.30
61591;DHT22;57639;52.410;-1.966;2023-06-22T09:11:38;21.10;59.30
61591;DHT22;57639;52.410;-1.966;2023-06-22T09:14:45;21.10;59.40
61591;DHT22;57639;52.410;-1.966;2023-06-22T09:17:51;21.20;59.40
61591;DHT22;57639;52.410;-1.966;2023-06-22T09:21:03;21.10;59.50
61591;DHT22;57639;52.410;-1.966;2023-06-22T09:24:13;21.10;59.60
61591;DHT22;57639;52.410;-1.966;2023-06-22T09:27:26;21.10;59.70
61591;DHT22;57639;52.410;-1.966;2023-06-22T09:30:35;21.10;59.80
61591;DHT22;57639;52.410;-1.966;2023-06-22T09:33:41;21.10;59.90
61591;DHT22;57639;52.410;-1.966;2023-06-22T09:36:50;21.10;59.90
61591;DHT22;57639;52.410;-1.966;2023-06-22T09:39:58;21.10;60.00
61591;DHT22;57639;52.410;-1.966;2023-06-22T09:43:04;21.10;60.10
61591;DHT22;57639;52.410;-1.966;2023-06-22T09:46:10;21.10;60.20
61591;DHT22;57639;52.410;-1.966;2023-06-22T09:49:17;21.10;60.20
61591;DHT22;57639;52.410;-1.966;2023-06-22T09:52:26;21.10;60.20
61591;DHT22;57639;52.410;-1.966;2023-06-22T09:55:32;21.20;60.20
61591;DHT22;57639;52.410;-1.966;2023-06-22T09:58:39;21.20;60.20
61591;DHT22;57639;52.410;-1.966;2023-06-22T10:01:45;21.20;60.20
61591;DHT22;57639;52.410;-1.966;2023-06-22T10:04:51;21.20;60.30
61591;DHT22;57639;52.410;-1.966;2023-06-22T10:08:00;21.30;60.30
61591;DHT22;57639;52.410;-1.966;2023-06-22T10:11:07;21.30;60.30
61591;DHT22;57639;52.410;-1.966;2023-06-22T10:14:13;21.30;60.30
61591;DHT22;57639;52.410;-1.966;2023-06-22T10:17:20;21.30;60.30
61591;DHT22;57639;52.410;-1.966;2023-06-22T10:20:26;21.30;60.30
61591;DHT22;57639;52.410;-1.966;2023-06-22T10:23:36;21.30;60.40
61591;DHT22;57639;52.410;-1.966;2023-06-22T10:26:43;21.30;60.50
61591;DHT22;57639;52.410;-1.966;2023-06-22T10:29:49;21.30;60.50
61591;DHT22;57639;52.410;-1.966;2023-06-22T10:32:57;21.30;60.60
61591;DHT22;57639;52.410;-1.966;2023-06-22T10:36:03;21.20;60.70
61591;DHT22;57639;52.410;-1.966;2023-06-22T10:39:13;21.30;60.60
61591;DHT22;57639;52.410;-1.966;2023-06-22T10:42:19;21.30;60.50
61591;DHT22;57639;52.410;-1.966;2023-06-22T10:45:28;21.30;60.50
61591;DHT22;57639;52.410;-1.966;2023-06-22T10:48:43;21.30;60.50
61591;DHT22;57639;52.410;-1.966;2023-06-22T10:51:54;21.20;60.40
61591;DHT22;57639;52.410;-1.966;2023-06-22T10:55:03;21.20;60.40
61591;DHT22;57639;52.410;-1.966;2023-06-22T10:58:10;21.20;60.40
61591;DHT22;57639;52.410;-1.966;2023-06-22T11:01:20;21.20;60.40
61591;DHT22;57639;52.410;-1.966;2023-06-22T11:04:29;21.20;60.40
61591;DHT22;57639;52.410;-1.966;2023-06-22T11:07:36;21.20;60.40
61591;DHT22;57639;52.410;-1.966;2023-06-22T11:10:51;21.20;60.30
61591;DHT22;57639;52.410;-1.966;2023-06-22T11:13:58;21.20;60.40
61591;DHT22;57639;52.410;-1.966;2023-06-22T11:17:04;21.20;60.30
61591;DHT22;57639;52.410;-1.966;2023-06-22T11:20:11;21.30;60.30
61591;DHT22;57639;52.410;-1.966;2023-06-22T11:23:21;21.30;60.20
61591;DHT22;57639;52.410;-1.966;2023-06-22T11:26:34;21.30;60.20
61591;DHT22;57639;52.410;-1.966;2023-06-22T11:29:41;21.30;60.10
61591;DHT22;57639;52.410;-1.966;2023-06-22T11:32:47;21.30;60.10
61591;DHT22;57639;52.410;-1.966;2023-06-22T11:35:53;21.30;60.10
61591;DHT22;57639;52.410;-1.966;2023-06-22T11:39:00;21.30;60.10
61591;DHT22;57639;52.410;-1.966;2023-06-22T11:42:11;21.30;60.00
61591;DHT22;57639;52.410;-1.966;2023-06-22T11:45:17;21.40;60.00
61591;DHT22;57639;52.410;-1.966;2023-06-22T11:48:24;21.40;60.00
61591;DHT22;57639;52.410;-1.966;2023-06-22T11:51:32;21.40;59.90
61591;DHT22;57639;52.410;-1.966;2023-06-22T11:54:39;21.40;59.90
61591;DHT22;57639;52.410;-1.966;2023-06-22T11:58:07;21.40;59.90
61591;DHT22;57639;52.410;-1.966;2023-06-22T12:01:14;21.40;60.00
61591;DHT22;57639;52.410;-1.966;2023-06-22T12:04:21;21.40;60.00
61591;DHT22;57639;52.410;-1.966;2023-06-22T12:07:32;21.40;60.00
61591;DHT22;57639;52.410;-1.966;2023-06-22T12:10:41;21.40;60.10
61591;DHT22;57639;52.410;-1.966;2023-06-22T12:13:50;21.40;60.10
61591;DHT22;57639;52.410;-1.966;2023-06-22T12:16:56;21.40;60.10
61591;DHT22;57639;52.410;-1.966;2023-06-22T12:20:03;21.40;60.20
61591;DHT22;57639;52.410;-1.966;2023-06-22T12:23:10;21.40;60.30
61591;DHT22;57639;52.410;-1.966;2023-06-22T12:26:20;21.40;60.20
61591;DHT22;57639;52.410;-1.966;2023-06-22T12:29:29;21.40;60.10
61591;DHT22;57639;52.410;-1.966;2023-06-22T12:32:35;21.50;60.00
61591;DHT22;57639;52.410;-1.966;2023-06-22T12:35:42;21.50;59.90
61591;DHT22;57639;52.410;-1.966;2023-06-22T12:38:51;21.50;59.90
61591;DHT22;57639;52.410;-1.966;2023-06-22T12:41:57;21.60;59.80
61591;DHT22;57639;52.410;-1.966;2023-06-22T12:45:08;21.60;59.80
61591;DHT22;57639;52.410;-1.966;2023-06-22T12:48:14;21.60;59.80
61591;DHT22;57639;52.410;-1.966;2023-06-22T12:51:21;21.60;59.80
61591;DHT22;57639;52.410;-1.966;2023-06-22T12:54:28;21.60;59.80
61591;DHT22;57639;52.410;-1.966;2023-06-22T12:57:34;21.60;59.70
61591;DHT22;57639;52.410;-1.966;2023-06-22T13:00:43;21.60;59.70
61591;DHT22;57639;52.410;-1.966;2023-06-22T13:03:50;21.60;59.70
61591;DHT22;57639;52.410;-1.966;2023-06-22T13:06:56;21.60;59.70
61591;DHT22;57639;52.410;-1.966;2023-06-22T13:10:03;21.60;59.70
61591;DHT22;57639;52.410;-1.966;2023-06-22T13:13:10;21.60;59.70
61591;DHT22;57639;52.410;-1.966;2023-06-22T13:16:22;21.60;59.60
61591;DHT22;57639;52.410;-1.966;2023-06-22T13:19:28;21.60;59.70
61591;DHT22;57639;52.410;-1.966;2023-06-22T13:22:35;21.60;59.70
61591;DHT22;57639;52.410;-1.966;2023-06-22T13:25:47;21.60;59.90
61591;DHT22;57639;52.410;-1.966;2023-06-22T13:28:54;21.60;60.00
61591;DHT22;57639;52.410;-1.966;2023-06-22T13:32:03;21.60;60.00
61591;DHT22;57639;52.410;-1.966;2023-06-22T13:35:10;21.60;60.00
61591;DHT22;57639;52.410;-1.966;2023-06-22T13:38:17;21.60;60.10
61591;DHT22;57639;52.410;-1.966;2023-06-22T13:41:23;21.60;60.00
61591;DHT22;57639;52.410;-1.966;2023-06-22T13:44:32;21.60;59.90
61591;DHT22;57639;52.410;-1.966;2023-06-22T13:47:44;21.60;59.90
61591;DHT22;57639;52.410;-1.966;2023-06-22T13:50:51;21.60;59.80
61591;DHT22;57639;52.410;-1.966;2023-06-22T13:53:57;21.60;59.80
61591;DHT22;57639;52.410;-1.966;2023-06-22T13:57:04;21.60;59.70
61591;DHT22;57639;52.410;-1.966;2023-06-22T14:00:11;21.70;59.70
61591;DHT22;57639;52.410;-1.966;2023-06-22T14:03:21;21.70;59.60
61591;DHT22;57639;52.410;-1.966;2023-06-22T14:06:30;21.70;59.60
61591;DHT22;57639;52.410;-1.966;2023-06-22T14:09:37;21.70;59.60
61591;DHT22;57639;52.410;-1.966;2023-06-22T14:12:43;21.70;59.60
61591;DHT22;57639;52.410;-1.966;2023-06-22T14:15:49;21.70;59.60
61591;DHT22;57639;52.410;-1.966;2023-06-22T14:19:00;21.70;59.50
61591;DHT22;57639;52.410;-1.966;2023-06-22T14:22:06;21.70;59.50
61591;DHT22;57639;52.410;-1.966;2023-06-22T14:25:12;21.80;59.50
61591;DHT22;57639;52.410;-1.966;2023-06-22T14:28:19;21.70;59.50
61591;DHT22;57639;52.410;-1.966;2023-06-22T14:31:25;21.70;59.60
61591;DHT22;57639;52.410;-1.966;2023-06-22T14:34:34;21.70;59.60
61591;DHT22;57639;52.410;-1.966;2023-06-22T14:37:42;21.70;59.60
61591;DHT22;57639;52.410;-1.966;2023-06-22T14:40:48;21.70;59.60
61591;DHT22;57639;52.410;-1.966;2023-06-22T14:43:54;21.70;59.60
61591;DHT22;57639;52.410;-1.966;2023-06-22T14:47:01;21.70;59.60
61591;DHT22;57639;52.410;-1.966;2023-06-22T14:50:10;21.70;59.60
61591;DHT22;57639;52.410;-1.966;2023-06-22T14:53:16;21.70;59.60
61591;DHT22;57639;52.410;-1.966;2023-06-22T14:56:23;21.70;59.70
61591;DHT22;57639;52.410;-1.966;2023-06-22T14:59:29;21.70;59.70
61591;DHT22;57639;52.410;-1.966;2023-06-22T15:02:37;21.70;59.60
61591;DHT22;57639;52.410;-1.966;2023-06-22T15:05:46;21.70;59.60
61591;DHT22;57639;52.410;-1.966;2023-06-22T15:08:53;21.70;59.50
61591;DHT22;57639;52.410;-1.966;2023-06-22T15:11:59;21.80;59.50
61591;DHT22;57639;52.410;-1.966;2023-06-22T15:15:09;21.80;59.40
61591;DHT22;57639;52.410;-1.966;2023-06-22T15:18:16;21.80;59.40
61591;DHT22;57639;52.410;-1.966;2023-06-22T15:21:27;21.80;59.40
61591;DHT22;57639;52.410;-1.966;2023-06-22T15:24:34;21.80;59.30
61591;DHT22;57639;52.410;-1.966;2023-06-22T15:27:40;21.80;59.30
61591;DHT22;57639;52.410;-1.966;2023-06-22T15:30:47;21.80;59.40
61591;DHT22;57639;52.410;-1.966;2023-06-22T15:33:54;21.80;59.30
61591;DHT22;57639;52.410;-1.966;2023-06-22T15:37:04;21.90;59.40
61591;DHT22;57639;52.410;-1.966;2023-06-22T15:40:11;21.90;59.40
61591;DHT22;57639;52.410;-1.966;2023-06-22T15:43:18;21.90;59.40
61591;DHT22;57639;52.410;-1.966;2023-06-22T15:46:33;21.90;59.40
61591;DHT22;57639;52.410;-1.966;2023-06-22T15:49:39;21.90;59.40
61591;DHT22;57639;52.410;-1.966;2023-06-22T15:52:48;21.90;59.40
61591;DHT22;57639;52.410;-1.966;2023-06-22T15:55:54;21.90;59.40
61591;DHT22;57639;52.410;-1.966;2023-06-22T15:59:01;21.90;59.40
61591;DHT22;57639;52.410;-1.966;2023-06-22T16:02:08;22.00;59.50
61591;DHT22;57639;52.410;-1.966;2023-06-22T16:05:14;21.90;59.50
61591;DHT22;57639;52.410;-1.966;2023-06-22T16:08:23;21.90;59.50
61591;DHT22;57639;52.410;-1.966;2023-06-22T16:11:33;21.80;59.50
61591;DHT22;57639;52.410;-1.966;2023-06-22T16:14:39;21.90;59.60
61591;DHT22;57639;52.410;-1.966;2023-06-22T16:17:46;21.90;59.60
61591;DHT22;57639;52.410;-1.966;2023-06-22T16:20:52;22.00;59.60
61591;DHT22;57639;52.410;-1.966;2023-06-22T16:24:01;22.00;59.70
61591;DHT22;57639;52.410;-1.966;2023-06-22T16:27:07;22.00;59.70
61591;DHT22;57639;52.410;-1.966;2023-06-22T16:30:14;22.00;59.70
61591;DHT22;57639;52.410;-1.966;2023-06-22T16:33:20;22.10;59.90
61591;DHT22;57639;52.410;-1.966;2023-06-22T16:36:32;22.10;60.00
61591;DHT22;57639;52.410;-1.966;2023-06-22T16:39:41;22.10;59.90
61591;DHT22;57639;52.410;-1.966;2023-06-22T16:42:49;22.10;60.00
61591;DHT22;57639;52.410;-1.966;2023-06-22T16:45:59;22.10;60.10
61591;DHT22;57639;52.410;-1.966;2023-06-22T16:49:05;22.00;60.20
61591;DHT22;57639;52.410;-1.966;2023-06-22T16:52:12;22.00;60.30
61591;DHT22;57639;52.410;-1.966;2023-06-22T16:55:21;22.00;60.30
61591;DHT22;57639;52.410;-1.966;2023-06-22T16:58:31;22.00;60.40
61591;DHT22;57639;52.410;-1.966;2023-06-22T17:01:46;22.10;60.50
61591;DHT22;57639;52.410;-1.966;2023-06-22T17:04:54;22.10;60.40
61591;DHT22;57639;52.410;-1.966;2023-06-22T17:08:06;22.10;60.20
61591;DHT22;57639;52.410;-1.966;2023-06-22T17:11:19;22.10;60.20
61591;DHT22;57639;52.410;-1.966;2023-06-22T17:14:30;22.10;60.30
61591;DHT22;57639;52.410;-1.966;2023-06-22T17:17:38;22.10;60.10
61591;DHT22;57639;52.410;-1.966;2023-06-22T17:20:47;22.10;60.00
61591;DHT22;57639;52.410;-1.966;2023-06-22T17:23:53;22.10;59.90
61591;DHT22;57639;52.410;-1.966;2023-06-22T17:27:14;22.10;59.80
61591;DHT22;57639;52.410;-1.966;2023-06-22T17:30:31;22.10;59.80
61591;DHT22;57639;52.410;-1.966;2023-06-22T17:33:38;22.10;59.80
61591;DHT22;57639;52.410;-1.966;2023-06-22T17:36:48;22.10;59.80
61591;DHT22;57639;52.410;-1.966;2023-06-22T17:39:55;22.10;59.80
61591;DHT22;57639;52.410;-1.966;2023-06-22T17:43:05;22.10;59.80
61591;DHT22;57639;52.410;-1.966;2023-06-22T17:46:12;22.10;59.80
61591;DHT22;57639;52.410;-1.966;2023-06-22T17:49:26;22.10;59.70
61591;DHT22;57639;52.410;-1.966;2023-06-22T17:52:38;22.10;59.70
61591;DHT22;57639;52.410;-1.966;2023-06-22T17:55:46;22.10;59.70
61591;DHT22;57639;52.410;-1.966;2023-06-22T17:58:55;22.10;59.60
61591;DHT22;57639;52.410;-1.966;2023-06-22T18:02:07;22.10;59.60
61591;DHT22;57639;52.410;-1.966;2023-06-22T18:05:15;22.10;59.60
61591;DHT22;57639;52.410;-1.966;2023-06-22T18:08:25;22.10;59.60
61591;DHT22;57639;52.410;-1.966;2023-06-22T18:11:38;22.10;59.60
61591;DHT22;57639;52.410;-1.966;2023-06-22T18:14:52;22.10;59.60
61591;DHT22;57639;52.410;-1.966;2023-06-22T18:17:59;22.10;59.50
61591;DHT22;57639;52.410;-1.966;2023-06-22T18:21:07;22.10;59.50
61591;DHT22;57639;52.410;-1.966;2023-06-22T18:24:16;22.10;59.50
61591;DHT22;57639;52.410;-1.966;2023-06-22T18:27:24;22.10;59.50
61591;DHT22;57639;52.410;-1.966;2023-06-22T18:30:37;22.10;59.50
61591;DHT22;57639;52.410;-1.966;2023-06-22T18:33:43;22.10;59.50
61591;DHT22;57639;52.410;-1.966;2023-06-22T18:36:52;22.00;59.50
61591;DHT22;57639;52.410;-1.966;2023-06-22T18:40:00;22.10;59.60
61591;DHT22;57639;52.410;-1.966;2023-06-22T18:43:20;22.00;59.60
61591;DHT22;57639;52.410;-1.966;2023-06-22T18:46:34;22.00;59.60
61591;DHT22;57639;52.410;-1.966;2023-06-22T18:49:50;22.00;59.60
61591;DHT22;57639;52.410;-1.966;2023-06-22T18:53:10;22.00;59.60
61591;DHT22;57639;52.410;-1.966;2023-06-22T18:56:18;22.00;59.60
61591;DHT22;57639;52.410;-1.966;2023-06-22T18:59:47;22.00;59.60
61591;DHT22;57639;52.410;-1.966;2023-06-22T19:03:00;21.90;59.60
61591;DHT22;57639;52.410;-1.966;2023-06-22T19:06:10;21.90;59.60
61591;DHT22;57639;52.410;-1.966;2023-06-22T19:09:17;22.00;59.60
61591;DHT22;57639;52.410;-1.966;2023-06-22T19:12:24;21.90;59.60
61591;DHT22;57639;52.410;-1.966;2023-06-22T19:15:33;21.90;59.60
61591;DHT22;57639;52.410;-1.966;2023-06-22T19:18:48;21.90;59.60
61591;DHT22;57639;52.410;-1.966;2023-06-22T19:21:59;21.90;59.60
61591;DHT22;57639;52.410;-1.966;2023-06-22T19:25:17;21.90;59.70
61591;DHT22;57639;52.410;-1.966;2023-06-22T19:28:24;21.90;59.70
61591;DHT22;57639;52.410;-1.966;2023-06-22T19:31:32;21.90;59.70